Time;durP1;ratioP1;P1;durP2;ratioP2;P2;SDS_P1;SDS_P2;PMS_P1;PMS_P2;Temp;Humidity;BMP_temperature;BMP_pressure;BME280_temperature;BME280_humidity;BME280_pressure;Samples;Min_cycle;Max_cycle;Signal;HPM_P1;HPM_P2
2023/07/29 00:02:26;;;;;;;17.25;6.63;;;44.20;36.60;;;;;;5070627;28;20538;-62
2023/07/29 00:04:52;;;;;;;12.30;3.28;;;44.10;36.60;;;;;;5066684;28;20783;-60
2023/07/29 00:07:19;;;;;;;9.07;2.80;;;44.00;36.80;;;;;;5067806;28;20079;-61
2023/07/29 00:09:45;;;;;;;17.98;3.53;;;44.10;37.20;;;;;;5069767;28;20048;-59
2023/07/29 00:12:12;;;;;;;11.75;3.20;;;44.00;36.50;;;;;;5068759;28;20024;-62
2023/07/29 00:14:38;;;;;;;16.20;3.17;;;44.00;36.70;;;;;;5068357;28;20058;-61
2023/07/29 00:17:05;;;;;;;12.68;3.03;;;44.00;36.70;;;;;;5068224;28;20074;-62
2023/07/29 00:19:32;;;;;;;14.45;3.47;;;43.90;36.90;;;;;;5068044;28;20579;-60
2023/07/29 00:21:58;;;;;;;9.20;2.83;;;43.90;37.90;;;;;;5073394;28;20054;-61
2023/07/29 00:24:25;;;;;;;14.93;3.30;;;43.70;37.30;;;;;;5069561;28;20063;-62
2023/07/29 00:26:51;;;;;;;12.93;3.50;;;43.60;37.50;;;;;;5068481;28;20044;-60
2023/07/29 00:29:17;;;;;;;17.92;3.35;;;43.50;37.80;;;;;;5068437;28;20043;-60
2023/07/29 00:31:44;;;;;;;11.50;3.67;;;43.60;38.10;;;;;;5068904;28;20513;-59
2023/07/29 00:34:10;;;;;;;12.48;3.50;;;43.40;38.20;;;;;;5069888;28;20153;-60
2023/07/29 00:36:37;;;;;;;15.68;3.67;;;43.30;38.30;;;;;;5068663;28;20044;-64
2023/07/29 00:39:03;;;;;;;10.25;2.83;;;43.40;38.30;;;;;;5069216;28;20055;-61
2023/07/29 00:41:30;;;;;;;12.88;3.67;;;43.30;38.20;;;;;;5068832;28;20060;-61
2023/07/29 00:43:56;;;;;;;12.02;3.15;;;43.40;38.40;;;;;;5069196;28;20556;-60
2023/07/29 00:46:24;;;;;;;15.52;3.28;;;43.30;37.70;;;;;;5068872;28;20043;-60
2023/07/29 00:48:50;;;;;;;20.63;5.20;;;43.40;37.90;;;;;;5068504;28;20126;-61
2023/07/29 00:51:17;;;;;;;17.80;3.85;;;43.30;38.10;;;;;;5068906;28;20063;-61
2023/07/29 00:53:43;;;;;;;15.07;4.15;;;43.30;37.80;;;;;;5066595;28;20479;-60
2023/07/29 00:56:10;;;;;;;21.63;4.65;;;43.20;38.10;;;;;;5069373;28;20087;-60
2023/07/29 00:58:36;;;;;;;33.33;4.80;;;43.10;39.90;;;;;;5068756;28;20088;-60
2023/07/29 01:01:03;;;;;;;34.30;4.40;;;42.90;40.00;;;;;;5067388;28;20075;-60
2023/07/29 01:03:29;;;;;;;32.13;4.50;;;42.80;40.00;;;;;;5066567;28;20046;-61
2023/07/29 01:06:15;;;;;;;35.97;4.60;;;42.70;39.50;;;;;;5068424;28;20508;-62
2023/07/29 01:09:07;;;;;;;29.07;4.67;;;42.70;39.60;;;;;;5067844;28;20079;-61
2023/07/29 01:11:42;;;;;;;30.35;4.35;;;42.50;39.50;;;;;;5064448;28;20073;-60
2023/07/29 01:14:18;;;;;;;26.63;4.32;;;42.30;39.60;;;;;;5070726;28;20056;-60
2023/07/29 01:16:58;;;;;;;31.30;4.40;;;42.30;39.70;;;;;;5067898;28;20398;-61
2023/07/29 01:19:49;;;;;;;30.75;4.47;;;42.20;39.70;;;;;;5068184;28;20059;-60
2023/07/29 01:22:17;;;;;;;35.95;3.97;;;42.20;39.70;;;;;;5067034;28;20531;-60
2023/07/29 01:24:43;;;;;;;31.17;4.20;;;42.10;39.30;;;;;;5067408;28;20525;-64
2023/07/29 01:27:10;;;;;;;20.30;4.25;;;42.00;39.50;;;;;;5066683;28;20050;-61
2023/07/29 01:29:36;;;;;;;34.70;5.00;;;41.90;39.60;;;;;;5072453;28;20109;-60
2023/07/29 01:32:11;;;;;;;34.15;5.13;;;41.90;39.40;;;;;;5069594;28;20069;-60
2023/07/29 01:34:58;;;;;;;42.58;4.65;;;41.80;38.20;;;;;;5068146;28;20047;-61
2023/07/29 01:37:29;;;;;;;28.85;4.47;;;41.70;38.00;;;;;;5067379;28;20154;-60
2023/07/29 01:39:59;;;;;;;27.45;3.47;;;41.70;37.50;;;;;;5067161;28;20063;-61
2023/07/29 01:42:26;;;;;;;28.30;3.42;;;41.50;36.70;;;;;;5067375;28;20054;-61
2023/07/29 01:44:53;;;;;;;25.00;3.47;;;41.40;36.50;;;;;;5067147;28;20077;-61
2023/07/29 01:47:21;;;;;;;22.60;3.38;;;41.40;36.60;;;;;;5067236;28;20150;-59
2023/07/29 01:49:47;;;;;;;22.25;3.83;;;41.30;36.60;;;;;;5069373;28;20069;-60
2023/07/29 01:52:14;;;;;;;20.55;4.00;;;41.20;36.80;;;;;;5067909;28;20062;-60
2023/07/29 01:54:40;;;;;;;34.65;3.78;;;41.20;37.00;;;;;;5066517;28;20069;-60
2023/07/29 01:57:06;;;;;;;25.25;3.80;;;41.20;37.30;;;;;;5065887;28;20415;-62
2023/07/29 01:59:33;;;;;;;19.75;3.78;;;41.20;37.60;;;;;;5066499;28;20079;-61
2023/07/29 02:01:59;;;;;;;16.50;3.80;;;41.20;37.70;;;;;;5069621;28;20059;-60
2023/07/29 02:04:26;;;;;;;20.55;3.67;;;41.40;37.80;;;;;;5066801;28;20468;-60
2023/07/29 02:06:53;;;;;;;32.85;4.15;;;41.60;37.90;;;;;;5067281;28;20059;-61
2023/07/29 02:09:19;;;;;;;21.10;3.55;;;41.50;38.40;;;;;;5067321;28;20459;-61
2023/07/29 02:11:46;;;;;;;22.52;3.80;;;41.20;39.10;;;;;;5067032;28;20059;-60
2023/07/29 02:14:12;;;;;;;19.73;3.80;;;41.00;39.80;;;;;;5069584;28;20094;-60
2023/07/29 02:16:39;;;;;;;20.35;3.70;;;40.90;40.30;;;;;;5069269;28;20127;-60
2023/07/29 02:19:05;;;;;;;23.85;3.97;;;40.80;40.80;;;;;;5066966;28;20057;-62
2023/07/29 02:21:31;;;;;;;22.70;3.97;;;40.60;41.30;;;;;;5072769;28;20081;-62
2023/07/29 02:23:58;;;;;;;20.60;3.28;;;40.50;41.30;;;;;;5066636;28;20136;-60
2023/07/29 02:26:24;;;;;;;20.20;3.70;;;40.40;42.10;;;;;;5067426;28;20080;-60
2023/07/29 02:28:51;;;;;;;24.80;4.40;;;40.30;42.20;;;;;;5066522;28;20133;-60
2023/07/29 02:31:22;;;;;;;17.23;3.97;;;40.20;42.90;;;;;;5067409;28;20118;-61
2023/07/29 02:33:49;;;;;;;22.48;4.22;;;40.10;43.40;;;;;;5067279;28;20519;-61
2023/07/29 02:36:16;;;;;;;24.73;4.75;;;40.00;43.70;;;;;;5069069;28;20064;-61
2023/07/29 02:38:43;;;;;;;19.42;4.30;;;39.90;44.00;;;;;;5066300;28;20152;-62
2023/07/29 02:41:12;;;;;;;21.13;4.38;;;39.90;44.50;;;;;;5066308;28;20069;-61
2023/07/29 02:43:39;;;;;;;20.67;4.28;;;39.80;44.90;;;;;;5065934;28;20070;-59
2023/07/29 02:46:05;;;;;;;22.60;4.40;;;39.70;45.10;;;;;;5065798;28;20427;-59
2023/07/29 02:48:31;;;;;;;23.23;4.10;;;39.60;45.30;;;;;;5066730;28;20154;-61
2023/07/29 02:50:58;;;;;;;24.02;5.05;;;39.60;45.80;;;;;;5067075;28;20158;-62
2023/07/29 02:53:25;;;;;;;27.67;5.13;;;39.50;46.30;;;;;;5066849;28;20062;-62
2023/07/29 02:55:51;;;;;;;33.00;5.07;;;39.40;46.60;;;;;;5065736;28;20092;-60
2023/07/29 02:58:18;;;;;;;31.45;5.43;;;39.40;47.00;;;;;;5065060;28;20069;-60
2023/07/29 03:00:44;;;;;;;25.40;5.35;;;39.30;47.60;;;;;;5069674;28;20147;-61
2023/07/29 03:03:11;;;;;;;34.40;5.88;;;39.20;48.00;;;;;;5067947;28;20786;-61
2023/07/29 03:05:38;;;;;;;30.38;5.63;;;39.10;48.50;;;;;;5067206;28;20513;-61
2023/07/29 03:08:04;;;;;;;26.27;5.68;;;39.10;48.80;;;;;;5071267;28;20089;-61
2023/07/29 03:10:31;;;;;;;27.80;5.05;;;39.00;49.10;;;;;;5066098;28;20483;-60
2023/07/29 03:12:57;;;;;;;32.00;5.18;;;38.90;49.30;;;;;;5066223;28;20158;-66
2023/07/29 03:15:24;;;;;;;31.67;5.82;;;38.90;49.50;;;;;;5068419;28;20059;-57
2023/07/29 03:17:51;;;;;;;34.55;5.60;;;38.90;49.80;;;;;;5065354;28;20070;-60
2023/07/29 03:20:19;;;;;;;31.25;5.63;;;38.80;50.20;;;;;;5064447;28;20096;-60
2023/07/29 03:22:45;;;;;;;30.40;5.78;;;38.80;50.60;;;;;;5073117;28;20075;-60
2023/07/29 03:25:12;;;;;;;28.52;5.10;;;38.70;51.20;;;;;;5070582;28;20069;-58
2023/07/29 03:27:39;;;;;;;34.80;5.35;;;38.70;51.70;;;;;;5069502;28;20096;-60
2023/07/29 03:30:07;;;;;;;33.92;5.68;;;38.60;52.10;;;;;;5069599;28;20106;-60
2023/07/29 03:32:33;;;;;;;23.48;5.10;;;38.60;52.40;;;;;;5074447;28;20078;-59
2023/07/29 03:35:00;;;;;;;31.92;5.78;;;38.50;52.80;;;;;;5070656;28;20079;-59
2023/07/29 03:37:26;;;;;;;35.67;5.63;;;38.50;53.20;;;;;;5068438;28;20086;-59
2023/07/29 03:39:53;;;;;;;33.40;5.88;;;38.40;53.60;;;;;;5069995;28;20084;-61
2023/07/29 03:42:19;;;;;;;23.98;5.75;;;38.30;53.90;;;;;;5069928;28;20545;-61
2023/07/29 03:44:46;;;;;;;32.30;4.93;;;38.20;54.10;;;;;;5070090;28;20163;-60
2023/07/29 03:47:12;;;;;;;28.33;5.40;;;38.10;54.30;;;;;;5069789;28;20487;-60
2023/07/29 03:49:39;;;;;;;29.25;4.93;;;38.10;54.30;;;;;;5070720;28;20076;-61
2023/07/29 03:52:05;;;;;;;24.65;5.32;;;38.10;54.40;;;;;;5069847;28;20104;-60
2023/07/29 03:54:32;;;;;;;20.77;5.30;;;38.00;54.50;;;;;;5070096;28;20083;-61
2023/07/29 03:56:58;;;;;;;25.75;4.50;;;37.90;54.50;;;;;;5069089;28;20565;-59
2023/07/29 03:59:25;;;;;;;21.40;5.10;;;37.90;54.50;;;;;;5068827;28;20085;-60
2023/07/29 04:01:51;;;;;;;31.45;5.32;;;37.90;54.50;;;;;;5069395;28;20734;-61
2023/07/29 04:04:17;;;;;;;22.73;5.43;;;37.90;54.40;;;;;;5069146;28;20076;-60
2023/07/29 04:06:44;;;;;;;29.27;5.32;;;37.90;54.50;;;;;;5070637;28;20068;-60
2023/07/29 04:09:10;;;;;;;33.85;5.03;;;37.80;54.60;;;;;;5069302;28;20087;-60
2023/07/29 04:11:37;;;;;;;25.38;5.38;;;37.70;54.70;;;;;;5071093;28;20070;-61
2023/07/29 04:14:03;;;;;;;34.22;5.82;;;37.80;55.00;;;;;;5068772;28;20114;-60
2023/07/29 04:16:30;;;;;;;25.58;4.55;;;38.20;54.30;;;;;;5070021;28;20117;-63
2023/07/29 04:18:56;;;;;;;34.63;5.60;;;38.40;54.10;;;;;;5068061;28;20176;-63
2023/07/29 04:21:22;;;;;;;37.33;5.05;;;38.80;53.70;;;;;;5068753;28;20544;-63
2023/07/29 04:23:49;;;;;;;27.20;5.35;;;38.90;53.60;;;;;;5068316;28;20061;-63
2023/07/29 04:26:15;;;;;;;31.98;5.63;;;38.80;53.50;;;;;;5070395;28;20064;-63
2023/07/29 04:28:42;;;;;;;30.17;5.45;;;38.80;53.40;;;;;;5072165;28;20097;-65
2023/07/29 04:31:09;;;;;;;21.90;4.93;;;38.80;53.50;;;;;;5071508;28;20070;-65
2023/07/29 04:33:35;;;;;;;33.03;5.22;;;38.80;53.60;;;;;;5070231;28;20062;-64
2023/07/29 04:36:02;;;;;;;25.05;4.72;;;38.90;53.50;;;;;;5068898;28;20076;-65
2023/07/29 04:38:32;;;;;;;22.13;4.80;;;38.80;53.80;;;;;;5067948;28;20138;-63
2023/07/29 04:41:02;;;;;;;18.35;4.20;;;38.60;53.70;;;;;;5068741;28;20545;-64
2023/07/29 04:43:32;;;;;;;22.67;4.88;;;38.60;54.00;;;;;;5066680;28;20083;-65
2023/07/29 04:45:58;;;;;;;18.10;4.70;;;38.50;53.90;;;;;;5067926;28;20493;-63
2023/07/29 04:48:24;;;;;;;20.30;4.45;;;38.60;54.00;;;;;;5067455;28;20073;-63
2023/07/29 04:50:51;;;;;;;19.17;4.60;;;38.40;54.00;;;;;;5069085;28;20170;-64
2023/07/29 04:53:17;;;;;;;28.55;4.68;;;38.40;54.20;;;;;;5069619;28;20474;-63
2023/07/29 04:55:44;;;;;;;16.67;4.22;;;38.10;54.40;;;;;;5067757;28;20082;-64
2023/07/29 04:58:10;;;;;;;22.33;4.72;;;38.10;54.70;;;;;;5067481;28;20557;-65
2023/07/29 05:00:37;;;;;;;17.05;4.82;;;38.20;54.50;;;;;;5071928;28;20090;-66
2023/07/29 05:03:03;;;;;;;18.40;4.13;;;38.10;54.50;;;;;;5070238;28;20171;-63
2023/07/29 05:05:29;;;;;;;22.25;4.90;;;38.10;54.60;;;;;;5067103;28;20441;-64
2023/07/29 05:07:56;;;;;;;14.55;4.60;;;38.00;54.70;;;;;;5067196;28;20085;-63
2023/07/29 05:10:22;;;;;;;16.58;5.00;;;37.90;54.70;;;;;;5067438;28;20110;-64
2023/07/29 05:12:49;;;;;;;15.63;4.03;;;38.00;54.80;;;;;;5066207;28;20543;-64
2023/07/29 05:15:16;;;;;;;24.25;5.88;;;38.00;54.70;;;;;;5077467;28;20087;-64
2023/07/29 05:17:42;;;;;;;17.48;4.45;;;38.00;54.90;;;;;;5066564;28;20211;-64
2023/07/29 05:20:09;;;;;;;21.83;4.20;;;37.80;54.90;;;;;;5071701;28;21108;-66
2023/07/29 05:22:35;;;;;;;22.33;4.50;;;37.80;55.20;;;;;;5067939;28;20072;-64
2023/07/29 05:25:02;;;;;;;22.30;5.25;;;37.80;55.10;;;;;;5066710;28;20600;-65
2023/07/29 05:27:28;;;;;;;19.23;4.95;;;37.50;55.50;;;;;;5066513;28;20081;-64
2023/07/29 05:29:55;;;;;;;15.82;4.68;;;37.40;55.70;;;;;;5065992;28;20079;-65
2023/07/29 05:32:21;;;;;;;27.17;5.15;;;37.40;55.80;;;;;;5065885;28;20103;-65
2023/07/29 05:34:47;;;;;;;27.02;5.75;;;37.40;55.80;;;;;;5067386;28;20174;-63
2023/07/29 05:37:14;;;;;;;23.13;5.45;;;37.20;56.50;;;;;;5065412;28;20076;-63
2023/07/29 05:39:40;;;;;;;14.38;5.25;;;37.20;56.80;;;;;;5065351;28;20788;-63
2023/07/29 05:42:07;;;;;;;15.38;4.63;;;37.20;57.20;;;;;;5070104;28;20105;-64
2023/07/29 05:44:34;;;;;;;21.02;5.28;;;37.20;57.40;;;;;;5064632;28;20601;-64
2023/07/29 05:47:00;;;;;;;18.60;5.28;;;37.00;58.00;;;;;;5067185;28;20079;-64
2023/07/29 05:49:27;;;;;;;19.08;4.57;;;36.80;59.00;;;;;;5064877;28;20167;-63
2023/07/29 05:51:53;;;;;;;21.23;5.40;;;36.80;58.90;;;;;;5066969;28;20088;-64
2023/07/29 05:54:20;;;;;;;19.30;5.63;;;36.70;59.40;;;;;;5066288;28;20698;-63
2023/07/29 05:56:46;;;;;;;20.92;5.68;;;36.70;59.70;;;;;;5068873;28;20076;-63
2023/07/29 05:59:13;;;;;;;12.40;4.70;;;36.50;60.40;;;;;;5065416;28;20084;-62
2023/07/29 06:01:39;;;;;;;23.08;5.20;;;36.50;60.50;;;;;;5064818;28;20091;-64
2023/07/29 06:04:05;;;;;;;20.33;5.40;;;36.50;61.00;;;;;;5067163;28;20551;-63
2023/07/29 06:06:32;;;;;;;27.42;5.30;;;36.50;61.30;;;;;;5068984;28;20434;-61
2023/07/29 06:08:58;;;;;;;31.08;6.47;;;36.40;61.60;;;;;;5065246;28;20110;-63
2023/07/29 06:11:25;;;;;;;21.50;5.38;;;36.20;62.10;;;;;;5067190;28;20133;-63
2023/07/29 06:13:51;;;;;;;25.73;6.53;;;36.20;62.60;;;;;;5065682;28;20571;-63
2023/07/29 06:16:17;;;;;;;22.38;6.18;;;36.20;62.80;;;;;;5067606;28;20080;-62
2023/07/29 06:18:44;;;;;;;19.05;5.68;;;36.20;63.10;;;;;;5065438;28;20079;-63
2023/07/29 06:21:16;;;;;;;23.95;6.18;;;36.10;63.40;;;;;;5065636;28;20179;-64
2023/07/29 06:23:43;;;;;;;22.50;5.78;;;36.20;63.50;;;;;;5065394;28;20580;-63
2023/07/29 06:26:10;;;;;;;21.52;6.03;;;36.00;63.60;;;;;;5066656;28;20083;-62
2023/07/29 06:28:36;;;;;;;18.63;5.57;;;35.90;63.80;;;;;;5065443;28;20087;-63
2023/07/29 06:31:02;;;;;;;14.73;4.97;;;36.00;63.90;;;;;;5065506;28;20071;-64
2023/07/29 06:33:29;;;;;;;24.95;6.05;;;36.00;64.10;;;;;;5064944;28;20445;-64
2023/07/29 06:35:55;;;;;;;22.55;5.20;;;35.90;64.20;;;;;;5066063;28;20090;-66
2023/07/29 06:38:22;;;;;;;20.30;5.30;;;35.80;64.60;;;;;;5064711;28;20079;-63
2023/07/29 06:40:49;;;;;;;22.17;5.82;;;35.80;65.00;;;;;;5066157;28;20096;-63
2023/07/29 06:43:15;;;;;;;25.75;5.53;;;35.60;65.10;;;;;;5065268;28;20083;-63
2023/07/29 06:45:42;;;;;;;19.65;6.03;;;35.60;65.10;;;;;;5064755;28;20584;-63
2023/07/29 06:48:09;;;;;;;18.52;5.75;;;35.60;65.50;;;;;;5063736;28;20080;-62
2023/07/29 06:50:35;;;;;;;23.60;7.95;;;35.60;65.40;;;;;;5066857;28;20636;-64
2023/07/29 06:53:01;;;;;;;22.25;5.95;;;35.60;65.40;;;;;;5066402;28;20217;-63
2023/07/29 06:55:28;;;;;;;22.73;5.95;;;35.50;65.40;;;;;;5065186;28;20126;-63
2023/07/29 06:57:55;;;;;;;22.67;6.05;;;35.50;65.70;;;;;;5064879;28;21036;-64
2023/07/29 07:00:21;;;;;;;24.92;6.55;;;35.30;65.70;;;;;;5065601;28;20571;-64
2023/07/29 07:02:47;;;;;;;22.55;6.93;;;35.20;65.90;;;;;;5069486;28;20549;-64
2023/07/29 07:05:14;;;;;;;19.52;5.80;;;35.20;66.40;;;;;;5069200;28;20482;-64
2023/07/29 07:07:41;;;;;;;22.10;5.70;;;35.20;66.50;;;;;;5073369;28;20103;-63
2023/07/29 07:10:07;;;;;;;20.48;5.47;;;35.20;66.50;;;;;;5068706;28;20588;-62
2023/07/29 07:12:34;;;;;;;18.92;5.03;;;35.30;66.60;;;;;;5068082;28;20084;-62
2023/07/29 07:15:01;;;;;;;21.77;6.20;;;35.20;66.80;;;;;;5073251;28;20079;-63
2023/07/29 07:17:27;;;;;;;19.63;5.72;;;35.10;66.90;;;;;;5069629;28;20114;-62
2023/07/29 07:19:54;;;;;;;17.70;5.80;;;35.20;67.20;;;;;;5067635;28;20579;-64
2023/07/29 07:22:20;;;;;;;18.38;5.32;;;35.00;67.50;;;;;;5069572;28;20083;-63
2023/07/29 07:24:47;;;;;;;20.05;5.40;;;35.00;68.10;;;;;;5068546;28;20100;-63
2023/07/29 07:27:14;;;;;;;17.83;5.30;;;34.90;68.50;;;;;;5072143;28;20640;-62
2023/07/29 07:29:40;;;;;;;16.27;5.00;;;34.90;68.70;;;;;;5069770;28;20498;-63
2023/07/29 07:32:06;;;;;;;22.67;6.13;;;34.80;69.30;;;;;;5073902;28;20082;-63
2023/07/29 07:34:34;;;;;;;30.00;5.88;;;34.80;69.50;;;;;;5068681;28;20087;-65
2023/07/29 07:37:01;;;;;;;32.15;6.10;;;34.80;69.80;;;;;;5068508;28;20198;-65
2023/07/29 07:39:27;;;;;;;24.85;5.97;;;34.70;70.50;;;;;;5068721;28;20617;-63
2023/07/29 07:41:53;;;;;;;50.88;8.15;;;34.70;70.50;;;;;;5070056;28;20434;-65
2023/07/29 07:44:20;;;;;;;67.55;9.48;;;34.70;70.60;;;;;;5067857;28;20153;-64
2023/07/29 07:46:47;;;;;;;32.47;5.50;;;34.60;71.60;;;;;;5069703;28;20084;-62
2023/07/29 07:49:14;;;;;;;21.42;6.35;;;34.70;71.00;;;;;;5068034;28;20548;-65
2023/07/29 07:51:40;;;;;;;17.00;6.00;;;34.60;71.10;;;;;;5076634;28;20455;-65
2023/07/29 07:54:07;;;;;;;23.38;5.85;;;34.60;71.30;;;;;;5067783;28;20555;-63
2023/07/29 07:56:33;;;;;;;21.23;5.72;;;34.60;71.90;;;;;;5067423;28;20170;-61
2023/07/29 07:58:59;;;;;;;15.60;4.82;;;34.50;71.80;;;;;;5069076;28;20469;-63
2023/07/29 08:01:26;;;;;;;23.95;5.25;;;34.50;72.40;;;;;;5068809;28;20096;-65
2023/07/29 08:03:52;;;;;;;15.30;5.00;;;34.50;72.50;;;;;;5067801;28;20087;-63
2023/07/29 08:06:19;;;;;;;19.33;5.50;;;34.60;72.30;;;;;;5070091;28;20459;-65
2023/07/29 08:08:45;;;;;;;17.00;4.65;;;34.60;72.50;;;;;;5067734;28;20102;-63
2023/07/29 08:11:12;;;;;;;15.05;4.97;;;34.50;72.60;;;;;;5066447;28;20114;-63
2023/07/29 08:13:38;;;;;;;18.02;4.78;;;34.50;73.00;;;;;;5068483;28;20129;-64
2023/07/29 08:16:04;;;;;;;18.30;5.00;;;34.50;72.90;;;;;;5069562;28;20175;-64
2023/07/29 08:18:31;;;;;;;13.70;4.72;;;34.60;73.00;;;;;;5067969;28;20088;-65
2023/07/29 08:20:59;;;;;;;24.90;4.70;;;34.50;73.00;;;;;;5069082;28;20096;-65
2023/07/29 08:23:26;;;;;;;29.25;5.53;;;34.40;73.30;;;;;;5071806;28;20117;-65
2023/07/29 08:26:01;;;;;;;21.77;5.25;;;34.30;73.50;;;;;;5067408;28;20075;-63
2023/07/29 08:28:35;;;;;;;24.63;5.37;;;34.20;73.60;;;;;;5070389;28;20079;-64
2023/07/29 08:31:02;;;;;;;15.98;5.00;;;34.20;74.00;;;;;;5067929;28;20087;-64
2023/07/29 08:33:29;;;;;;;19.98;4.82;;;34.20;74.80;;;;;;5069405;28;20072;-64
2023/07/29 08:35:56;;;;;;;24.55;5.43;;;34.10;73.90;;;;;;5068578;28;20084;-64
2023/07/29 08:38:22;;;;;;;15.93;4.75;;;34.20;73.70;;;;;;5067623;28;20100;-64
2023/07/29 08:40:58;;;;;;;16.88;5.15;;;34.20;73.40;;;;;;5067910;28;20229;-65
2023/07/29 08:43:32;;;;;;;14.88;4.70;;;34.20;73.40;;;;;;5067645;28;20134;-64
2023/07/29 08:46:01;;;;;;;19.38;4.82;;;34.10;73.40;;;;;;5072058;28;20103;-64
2023/07/29 08:48:39;;;;;;;17.50;4.93;;;34.10;73.60;;;;;;5068724;28;20106;-64
2023/07/29 08:51:07;;;;;;;22.92;4.93;;;34.20;73.70;;;;;;5067825;28;20082;-64
2023/07/29 08:53:35;;;;;;;13.73;4.63;;;34.10;73.60;;;;;;5067775;28;20095;-63
2023/07/29 08:56:02;;;;;;;15.55;5.07;;;34.20;73.90;;;;;;5068475;28;20080;-63
2023/07/29 08:58:29;;;;;;;20.90;5.20;;;34.10;73.60;;;;;;5067573;28;20084;-64
2023/07/29 09:00:55;;;;;;;20.83;4.95;;;34.10;74.10;;;;;;5067410;28;20120;-64
2023/07/29 09:03:22;;;;;;;14.20;4.55;;;34.10;74.00;;;;;;5067797;28;20087;-63
2023/07/29 09:05:49;;;;;;;18.38;4.93;;;34.10;74.10;;;;;;5067429;28;20083;-63
2023/07/29 09:08:15;;;;;;;17.83;5.13;;;34.10;74.00;;;;;;5066334;28;20173;-64
2023/07/29 09:10:42;;;;;;;15.80;4.72;;;34.10;73.80;;;;;;5066844;28;20084;-63
2023/07/29 09:13:08;;;;;;;19.73;5.10;;;34.00;74.10;;;;;;5066884;28;20083;-65
2023/07/29 09:15:37;;;;;;;18.90;4.35;;;33.90;73.90;;;;;;5068818;28;20091;-63
2023/07/29 09:18:21;;;;;;;17.40;4.72;;;34.00;73.90;;;;;;5068406;28;20121;-63
2023/07/29 09:20:49;;;;;;;17.73;4.70;;;33.90;73.70;;;;;;5068236;28;20134;-63
2023/07/29 09:23:16;;;;;;;14.35;4.32;;;33.80;73.80;;;;;;5066593;28;20068;-64
2023/07/29 09:25:43;;;;;;;17.08;4.80;;;33.90;73.60;;;;;;5066717;28;20077;-64
2023/07/29 09:28:14;;;;;;;19.48;4.78;;;33.80;73.40;;;;;;5066884;28;20071;-65
2023/07/29 09:30:43;;;;;;;17.15;4.50;;;33.70;73.60;;;;;;5084536;28;20398;-66
2023/07/29 09:33:10;;;;;;;20.15;4.78;;;33.70;73.70;;;;;;5066454;28;20531;-65
2023/07/29 09:35:37;;;;;;;19.73;4.32;;;33.80;73.30;;;;;;5067528;28;20093;-65
2023/07/29 09:38:07;;;;;;;19.38;4.40;;;33.60;73.10;;;;;;5065930;28;20426;-63
2023/07/29 09:40:37;;;;;;;15.32;4.07;;;33.60;73.10;;;;;;5069223;28;20092;-63
2023/07/29 09:43:04;;;;;;;13.80;4.10;;;33.60;72.90;;;;;;5068938;28;20081;-65
2023/07/29 09:45:32;;;;;;;14.13;4.55;;;33.60;72.20;;;;;;5066170;28;20091;-64
2023/07/29 09:47:59;;;;;;;18.25;4.55;;;33.60;71.80;;;;;;5068991;28;20072;-64
2023/07/29 09:50:26;;;;;;;16.75;5.07;;;33.60;71.80;;;;;;5067320;28;20079;-63
2023/07/29 09:52:54;;;;;;;12.05;3.97;;;33.50;71.60;;;;;;5066689;28;20148;-63
2023/07/29 09:55:26;;;;;;;17.88;4.40;;;33.60;71.80;;;;;;5066375;28;20449;-63
2023/07/29 09:58:02;;;;;;;18.35;3.97;;;33.60;71.70;;;;;;5065567;28;21081;-65
2023/07/29 10:00:32;;;;;;;15.43;4.75;;;33.50;72.10;;;;;;5068256;28;20153;-65
2023/07/29 10:02:59;;;;;;;17.33;4.30;;;33.50;72.20;;;;;;5066655;28;20080;-64
2023/07/29 10:05:29;;;;;;;17.08;4.55;;;33.50;72.10;;;;;;5067804;28;20084;-63
2023/07/29 10:07:56;;;;;;;15.48;4.10;;;33.60;72.10;;;;;;5069670;28;20110;-63
2023/07/29 10:10:23;;;;;;;19.55;4.07;;;33.60;72.00;;;;;;5067791;28;20092;-63
2023/07/29 10:12:50;;;;;;;24.02;3.95;;;33.60;71.90;;;;;;5066460;28;20141;-64
2023/07/29 10:15:17;;;;;;;13.20;4.00;;;33.60;71.80;;;;;;5065903;28;20079;-64
2023/07/29 10:17:45;;;;;;;18.08;4.35;;;33.60;71.80;;;;;;5068508;28;20084;-64
2023/07/29 10:20:12;;;;;;;12.57;3.90;;;33.50;72.10;;;;;;5066785;28;20123;-64
2023/07/29 10:22:39;;;;;;;17.60;4.18;;;33.50;72.20;;;;;;5066584;28;20549;-64
2023/07/29 10:25:41;;;;;;;12.60;3.60;;;33.50;72.10;;;;;;5067101;28;20167;-64
2023/07/29 10:28:11;;;;;;;15.02;3.83;;;33.50;72.00;;;;;;5044074;28;20130;-64
2023/07/29 10:30:37;;;;;;;20.75;4.53;;;33.50;72.10;;;;;;5049854;28;20102;-65
2023/07/29 10:33:05;;;;;;;14.65;3.83;;;33.50;72.10;;;;;;5044974;28;20103;-65
2023/07/29 10:35:35;;;;;;;17.83;4.15;;;33.50;71.60;;;;;;5044205;28;20084;-63
2023/07/29 10:38:03;;;;;;;15.40;4.05;;;33.50;71.30;;;;;;5045099;28;20251;-65
2023/07/29 10:40:47;;;;;;;18.13;4.40;;;33.40;70.60;;;;;;5044480;28;20111;-65
2023/07/29 10:43:25;;;;;;;20.02;4.53;;;33.40;70.00;;;;;;5044268;28;20099;-65
2023/07/29 10:45:52;;;;;;;22.98;4.60;;;33.20;70.20;;;;;;5044215;28;20562;-63
2023/07/29 10:48:36;;;;;;;15.55;4.38;;;33.30;69.50;;;;;;5044208;28;20454;-65
2023/07/29 10:51:29;;;;;;;17.15;4.18;;;33.30;68.50;;;;;;5057319;28;20179;-65
2023/07/29 10:54:16;;;;;;;9.73;3.10;;;33.20;68.10;;;;;;5045973;28;20184;-65
2023/07/29 10:56:47;;;;;;;15.63;3.40;;;33.10;68.40;;;;;;5044074;28;20101;-64
2023/07/29 10:59:16;;;;;;;16.27;3.70;;;33.20;68.30;;;;;;5048827;28;20080;-65
2023/07/29 11:01:50;;;;;;;11.85;3.42;;;33.20;68.10;;;;;;5027817;28;20099;-64
2023/07/29 11:04:23;;;;;;;15.55;3.28;;;33.20;67.90;;;;;;5061040;28;20090;-65
2023/07/29 11:07:23;;;;;;;13.35;3.30;;;33.20;68.10;;;;;;5069377;28;20109;-65
2023/07/29 11:09:49;;;;;;;14.48;3.20;;;33.20;68.40;;;;;;5065294;28;20139;-64
2023/07/29 11:12:34;;;;;;;15.82;3.40;;;33.20;68.40;;;;;;5065852;28;20503;-64
2023/07/29 11:15:18;;;;;;;13.98;4.30;;;33.10;68.70;;;;;;5067950;28;20077;-63
2023/07/29 11:17:58;;;;;;;15.48;3.13;;;33.10;69.00;;;;;;5064376;28;20099;-63
2023/07/29 11:20:27;;;;;;;14.95;3.47;;;33.20;69.00;;;;;;5068783;28;20550;-63
2023/07/29 11:22:54;;;;;;;12.65;3.60;;;33.20;69.20;;;;;;5066451;28;20119;-63
2023/07/29 11:25:23;;;;;;;16.92;3.20;;;33.10;69.40;;;;;;5066225;28;20168;-65
2023/07/29 11:27:53;;;;;;;16.80;3.67;;;33.20;69.60;;;;;;5067101;28;20081;-64
2023/07/29 11:30:19;;;;;;;10.88;3.25;;;33.10;69.80;;;;;;5065537;28;20084;-64
2023/07/29 11:32:46;;;;;;;12.20;3.70;;;32.90;70.30;;;;;;5065292;28;20076;-63
2023/07/29 11:35:16;;;;;;;9.95;3.58;;;32.90;70.70;;;;;;5066823;28;20088;-65
2023/07/29 11:37:47;;;;;;;14.05;3.80;;;32.80;70.60;;;;;;5067206;28;20134;-63
2023/07/29 11:40:17;;;;;;;11.77;3.33;;;32.80;71.00;;;;;;5065728;28;20110;-64
2023/07/29 11:42:45;;;;;;;14.57;3.55;;;32.80;71.00;;;;;;5065653;28;20176;-64
2023/07/29 11:45:12;;;;;;;14.20;2.85;;;32.70;71.00;;;;;;5065547;28;20646;-63
2023/07/29 11:47:39;;;;;;;8.00;2.90;;;32.70;71.30;;;;;;5068730;28;20077;-64
2023/07/29 11:50:10;;;;;;;15.57;3.38;;;32.70;71.20;;;;;;5070646;28;20098;-64
2023/07/29 11:52:38;;;;;;;13.45;3.55;;;32.70;71.40;;;;;;5069587;28;20487;-62
2023/07/29 11:55:05;;;;;;;16.30;4.03;;;32.60;71.80;;;;;;5071233;28;20085;-63
2023/07/29 11:57:35;;;;;;;13.93;3.65;;;32.50;72.50;;;;;;5073000;28;21205;-65
2023/07/29 12:00:06;;;;;;;11.73;3.47;;;32.50;72.70;;;;;;5069262;28;20100;-62
2023/07/29 12:02:36;;;;;;;17.98;4.22;;;32.50;73.30;;;;;;5068256;28;20096;-64
2023/07/29 12:05:05;;;;;;;19.40;3.72;;;32.50;74.30;;;;;;5067633;28;20085;-62
2023/07/29 12:07:33;;;;;;;16.23;3.08;;;32.40;74.80;;;;;;5067384;28;20136;-64
2023/07/29 12:10:00;;;;;;;27.45;4.47;;;32.40;75.20;;;;;;5068608;28;20143;-63
2023/07/29 12:12:26;;;;;;;17.75;2.72;;;32.40;76.10;;;;;;5068548;28;20116;-62
2023/07/29 12:14:55;;;;;;;16.23;3.05;;;32.40;76.70;;;;;;5071385;28;20118;-62
2023/07/29 12:17:21;;;;;;;13.60;2.60;;;32.40;77.20;;;;;;5068801;28;20173;-62
2023/07/29 12:19:48;;;;;;;23.10;2.88;;;32.40;77.20;;;;;;5070686;28;20083;-61
2023/07/29 12:22:19;;;;;;;15.45;3.40;;;32.30;77.30;;;;;;5068547;28;20076;-62
2023/07/29 12:24:46;;;;;;;14.63;3.70;;;32.20;78.20;;;;;;5069125;28;20113;-62
2023/07/29 12:27:15;;;;;;;17.20;3.65;;;32.20;78.80;;;;;;5070473;28;20104;-62
2023/07/29 12:29:46;;;;;;;14.07;3.58;;;32.30;79.10;;;;;;5068393;28;20565;-63
2023/07/29 12:32:13;;;;;;;15.70;3.85;;;32.30;79.50;;;;;;5067398;28;20092;-63
2023/07/29 12:34:40;;;;;;;17.92;3.80;;;32.20;79.90;;;;;;5069779;28;20510;-64
2023/07/29 12:37:07;;;;;;;25.60;4.07;;;32.20;80.60;;;;;;5068068;28;20565;-62
2023/07/29 12:39:35;;;;;;;17.13;3.83;;;32.10;81.40;;;;;;5068115;28;20085;-63
2023/07/29 12:42:03;;;;;;;17.13;4.20;;;32.10;82.20;;;;;;5068053;28;20103;-64
2023/07/29 12:44:34;;;;;;;14.02;3.53;;;32.00;83.20;;;;;;5065064;28;20090;-63